Pagrindinis puslapis
METAR-TAF:

METAR-TAF

Oro uostai :

Siemreabas, Kambodža

platuma: 13-22N, ilguma: 103-51E, Aukštis: 15 m

Dabartinis oras

Ataskaita buvo paskelbta 11 minutes, ne 21:30 UTC
Vėjas 1 kt nuo kintamojo kryptimis
Temperatūra 26°C
Drėgmė 94%
Slėgis 1008 hPa
Matomumas: 9000 m
Išsisklaidę debesys ne aukštis 1500 ft
Išsisklaidę debesys ne aukštis 4000 ft

METAR: VDSR 172130Z VRB01KT 9000 SCT015 SCT040 26/25 Q1008

Laikas: 04:41 (21:41 UTC)

Prognozė

Ataskaita buvo paskelbta 4 valandos ir 41 minutes, ne 17:00 UTC
Prognozė galioja nuo 17 metu 18 UTC su 18 metu 12 UTC
Vėjas 9 kt iš Vakarų/Pietvakarių
Matomumas 10 km arba daugiau
Išsisklaidę debesys ne aukštis 1700 ft
Išsisklaidę debesys ne aukštis 4000 ft
Laikinai
nuo 18 metu 06 UTC su 18 metu 12 UTC
Išsisklaidę debesys ne aukštis 1500 ft
Mažai debesys ne aukštis 1700 ft, Liūtiniai kamuoliniai debesys.

TAF: VDSR 171700Z 1718/1812 25009KT 9999 SCT017 SCT040 TEMPO 1806/1812 SCT015 FEW017CB

Orai ataskaitas ir orų prognozės (METAR, TAF).

turimą stotys yra geltonos ir raudonos taškus žemėlapyje.

Perkelti pele per norėdami pamatyti stoties vardą.

Tada spustelėkite, norėdami matyti oro stebėjimo ir prognozės.

Norėdami pakeisti žemėlapį: spustelėkite ant žalios mygtukų su juodo kryžiaus žemyn,; žalią mygtuką su brūkšneliu, jei norite nutolinti; arba žalių rodyklių gretimoms žemėlapius.


METAR-TAF: